Time;durP1;ratioP1;P1;durP2;ratioP2;P2;SDS_P1;SDS_P2;PMS_P1;PMS_P2;Temp;Humidity;BMP_temperature;BMP_pressure;BME280_temperature;BME280_humidity;BME280_pressure;Samples;Min_cycle;Max_cycle;Signal;HPM_P1;HPM_P2
2023/05/13 00:00:02;;;;;;;8.65;6.22;;;13.10;99.90;;;;;;5075320;28;20094;-85
2023/05/13 00:02:27;;;;;;;7.53;5.70;;;13.10;99.90;;;;;;5092048;28;20071;-85
2023/05/13 00:04:53;;;;;;;8.75;5.78;;;13.10;99.90;;;;;;5092435;28;20039;-85
2023/05/13 00:07:18;;;;;;;7.45;5.80;;;13.10;99.90;;;;;;5091925;28;20044;-85
2023/05/13 00:09:44;;;;;;;8.50;5.60;;;13.10;99.90;;;;;;5091750;28;20036;-85
2023/05/13 00:12:09;;;;;;;12.55;6.15;;;13.00;99.90;;;;;;5092001;28;20419;-85
2023/05/13 00:14:35;;;;;;;8.13;5.70;;;13.10;99.90;;;;;;5091589;28;20039;-85
2023/05/13 00:17:03;;;;;;;10.82;6.25;;;13.10;99.90;;;;;;5074897;28;20040;-85
2023/05/13 00:19:29;;;;;;;8.50;6.18;;;13.10;99.90;;;;;;5091627;28;20119;-85
2023/05/13 00:21:55;;;;;;;8.90;6.15;;;13.10;99.90;;;;;;5091808;28;20460;-85
2023/05/13 00:24:20;;;;;;;9.00;6.35;;;13.10;99.90;;;;;;5061061;28;20044;-84
2023/05/13 00:26:46;;;;;;;10.00;6.88;;;13.00;99.90;;;;;;5090922;28;20046;-85
2023/05/13 00:29:11;;;;;;;8.00;6.75;;;13.00;99.90;;;;;;5062992;28;20036;-85
2023/05/13 00:31:37;;;;;;;8.57;6.18;;;13.00;99.90;;;;;;5072390;28;20036;-84
2023/05/13 00:34:03;;;;;;;10.07;6.22;;;13.00;99.90;;;;;;5091289;28;20112;-85
2023/05/13 00:36:28;;;;;;;8.98;6.13;;;12.90;99.90;;;;;;5091337;28;20499;-84
2023/05/13 00:38:54;;;;;;;7.45;5.97;;;12.70;99.90;;;;;;5074620;28;20040;-85
2023/05/13 00:41:21;;;;;;;8.40;7.05;;;12.60;99.90;;;;;;5091522;28;20043;-86
2023/05/13 00:43:47;;;;;;;8.77;6.20;;;12.50;99.90;;;;;;5091083;28;20047;-85
2023/05/13 00:46:14;;;;;;;9.10;6.65;;;12.50;99.90;;;;;;5074510;28;20108;-85
2023/05/13 00:48:40;;;;;;;10.13;6.90;;;12.50;99.90;;;;;;5091243;28;20392;-85
2023/05/13 00:51:06;;;;;;;8.10;6.60;;;12.50;99.90;;;;;;5064480;28;20032;-85
2023/05/13 00:53:32;;;;;;;9.43;6.70;;;12.40;99.90;;;;;;5086859;28;20035;-85
2023/05/13 00:55:58;;;;;;;10.68;6.57;;;12.40;99.90;;;;;;5095333;28;20032;-85
2023/05/13 00:58:23;;;;;;;15.57;7.22;;;12.30;99.90;;;;;;5100993;28;20554;-85
2023/05/13 01:01:29;;;;;;;8.38;6.65;;;12.30;99.90;;;;;;5091095;28;20036;-84
2023/05/13 01:03:54;;;;;;;9.82;7.00;;;12.30;99.90;;;;;;5091066;28;20044;-85
2023/05/13 01:06:39;;;;;;;12.85;7.30;;;12.30;99.90;;;;;;5090887;28;20134;-85
2023/05/13 01:09:22;;;;;;;11.00;7.25;;;12.30;99.90;;;;;;5090756;28;20047;-84
2023/05/13 01:11:52;;;;;;;10.45;7.13;;;12.30;99.90;;;;;;5091210;28;20043;-86
2023/05/13 01:14:28;;;;;;;7.85;6.60;;;12.30;99.90;;;;;;5090653;28;20092;-85
2023/05/13 01:17:25;;;;;;;12.75;7.05;;;12.30;99.90;;;;;;5107780;28;20097;-85
2023/05/13 01:19:56;;;;;;;10.45;6.90;;;12.30;99.90;;;;;;5090515;28;20028;-85
2023/05/13 01:22:21;;;;;;;8.95;6.60;;;12.20;99.90;;;;;;5062380;28;20051;-85
2023/05/13 01:24:49;;;;;;;8.40;6.45;;;12.10;99.90;;;;;;5088092;28;20040;-84
2023/05/13 01:27:15;;;;;;;8.85;6.78;;;12.00;99.90;;;;;;5090739;28;20078;-84
2023/05/13 01:29:41;;;;;;;8.88;6.93;;;11.90;99.90;;;;;;5090425;28;20040;-85
2023/05/13 01:32:08;;;;;;;8.38;7.13;;;11.90;99.90;;;;;;5090728;28;20039;-85
2023/05/13 01:34:34;;;;;;;11.55;7.28;;;11.80;99.90;;;;;;5090827;28;20600;-84
2023/05/13 01:37:00;;;;;;;10.05;7.22;;;11.80;99.90;;;;;;5088140;28;20384;-85
2023/05/13 01:39:27;;;;;;;8.73;7.30;;;11.80;99.90;;;;;;5090350;28;20065;-85
2023/05/13 01:41:53;;;;;;;10.65;7.40;;;11.80;99.90;;;;;;5073741;28;20085;-85
2023/05/13 01:44:18;;;;;;;8.82;7.45;;;11.70;99.90;;;;;;5089833;28;20082;-85
2023/05/13 01:46:45;;;;;;;10.57;8.02;;;11.70;99.90;;;;;;5090137;28;20055;-85
2023/05/13 01:49:11;;;;;;;9.27;7.20;;;11.70;99.90;;;;;;5065041;28;20032;-85
2023/05/13 01:51:37;;;;;;;10.52;7.47;;;11.60;99.90;;;;;;5070205;28;20093;-84
2023/05/13 01:54:03;;;;;;;11.48;8.38;;;11.60;99.90;;;;;;5090048;28;20032;-84
2023/05/13 01:56:29;;;;;;;15.43;7.40;;;11.60;99.90;;;;;;5098638;28;20124;-84
2023/05/13 01:58:54;;;;;;;10.30;7.10;;;11.50;99.90;;;;;;5079115;28;20078;-84
2023/05/13 02:01:20;;;;;;;10.70;6.90;;;11.50;99.90;;;;;;5067103;28;20094;-85
2023/05/13 02:03:45;;;;;;;14.52;7.75;;;11.40;99.90;;;;;;5082615;28;20040;-85
2023/05/13 02:06:11;;;;;;;10.73;8.10;;;11.40;99.90;;;;;;5054941;28;20072;-85
2023/05/13 02:08:36;;;;;;;10.85;7.97;;;11.40;99.90;;;;;;5063329;28;20120;-86
2023/05/13 02:11:02;;;;;;;9.10;7.57;;;11.30;99.90;;;;;;5090252;28;20117;-86
2023/05/13 02:13:28;;;;;;;12.23;8.60;;;11.30;99.90;;;;;;5090024;28;20036;-85
2023/05/13 02:15:54;;;;;;;10.68;8.15;;;11.30;99.90;;;;;;5073150;28;20519;-85
2023/05/13 02:18:21;;;;;;;10.05;8.35;;;11.20;99.90;;;;;;5089839;28;20039;-85
2023/05/13 02:20:47;;;;;;;9.70;8.45;;;11.20;99.90;;;;;;5073409;28;20093;-85
2023/05/13 02:23:13;;;;;;;11.95;8.60;;;11.20;99.90;;;;;;5089905;28;20457;-85
2023/05/13 02:25:42;;;;;;;9.77;8.13;;;11.10;99.90;;;;;;5090077;28;20040;-85
2023/05/13 02:28:08;;;;;;;15.23;8.93;;;11.10;99.90;;;;;;5089771;28;20039;-85
2023/05/13 02:30:33;;;;;;;11.15;8.30;;;11.10;99.90;;;;;;5089886;28;20036;-85
2023/05/13 02:33:00;;;;;;;10.68;8.95;;;11.00;99.90;;;;;;5089763;28;20403;-85
2023/05/13 02:35:28;;;;;;;11.73;8.93;;;11.00;99.90;;;;;;5089914;28;20040;-85
2023/05/13 02:37:55;;;;;;;11.77;9.07;;;11.00;99.90;;;;;;5089632;28;20115;-85
2023/05/13 02:40:21;;;;;;;10.82;8.82;;;10.90;99.90;;;;;;5089726;28;20555;-84
2023/05/13 02:42:46;;;;;;;13.32;8.90;;;10.80;99.90;;;;;;5072968;28;20119;-84
2023/05/13 02:45:12;;;;;;;13.55;8.80;;;10.80;99.90;;;;;;5089640;28;20032;-84
2023/05/13 02:47:38;;;;;;;10.88;8.90;;;10.70;99.90;;;;;;5089649;28;20457;-85
2023/05/13 02:50:06;;;;;;;10.35;7.97;;;10.70;99.90;;;;;;5089730;28;20036;-85
2023/05/13 02:52:34;;;;;;;12.65;9.60;;;10.70;99.90;;;;;;5072813;28;20032;-85
2023/05/13 02:55:00;;;;;;;10.98;9.55;;;10.70;99.90;;;;;;5089572;28;20043;-85
2023/05/13 02:57:26;;;;;;;10.95;9.25;;;10.70;99.90;;;;;;5079095;28;20422;-85
2023/05/13 02:59:52;;;;;;;12.70;9.63;;;10.70;99.90;;;;;;5068632;28;20036;-85
2023/05/13 03:02:17;;;;;;;11.38;10.18;;;10.60;99.90;;;;;;5087472;28;20032;-84
2023/05/13 03:04:43;;;;;;;13.93;10.20;;;10.60;99.90;;;;;;5093354;28;20036;-85
2023/05/13 03:07:08;;;;;;;14.55;9.85;;;10.60;99.90;;;;;;5093162;28;20115;-85
2023/05/13 03:09:37;;;;;;;11.52;10.10;;;10.60;99.90;;;;;;5093036;28;20054;-84
2023/05/13 03:12:04;;;;;;;15.10;10.60;;;10.60;99.90;;;;;;5093285;28;20044;-85
2023/05/13 03:14:30;;;;;;;14.25;10.48;;;10.60;99.90;;;;;;5093154;28;20044;-85
2023/05/13 03:16:55;;;;;;;13.90;9.52;;;10.70;99.90;;;;;;5093295;28;20044;-85
2023/05/13 03:19:21;;;;;;;19.50;10.13;;;10.60;99.90;;;;;;5092882;28;20579;-85
2023/05/13 03:21:46;;;;;;;13.65;10.40;;;10.60;99.90;;;;;;5093055;28;20124;-85
2023/05/13 03:24:12;;;;;;;13.90;10.85;;;10.60;99.90;;;;;;5092914;28;20093;-85
2023/05/13 03:26:38;;;;;;;13.75;10.90;;;10.50;99.90;;;;;;5092775;28;20067;-85
2023/05/13 03:29:03;;;;;;;15.57;10.55;;;10.40;99.90;;;;;;5075837;28;20525;-85
2023/05/13 03:31:29;;;;;;;15.75;10.23;;;10.40;99.90;;;;;;5093048;28;20056;-85
2023/05/13 03:33:54;;;;;;;12.73;11.30;;;10.40;99.90;;;;;;5092873;28;20503;-85
2023/05/13 03:36:20;;;;;;;13.25;10.25;;;10.40;99.90;;;;;;5075849;28;20036;-85
2023/05/13 03:38:45;;;;;;;13.15;10.93;;;10.50;99.90;;;;;;5092882;28;20088;-85
2023/05/13 03:41:11;;;;;;;12.68;10.20;;;10.50;99.90;;;;;;5092783;28;20131;-85
2023/05/13 03:43:37;;;;;;;13.52;10.25;;;10.50;99.90;;;;;;5092599;28;20504;-85
2023/05/13 03:46:02;;;;;;;14.02;10.10;;;10.60;99.90;;;;;;5092576;28;20036;-85
2023/05/13 03:48:28;;;;;;;12.07;9.70;;;10.60;99.90;;;;;;5092602;28;20090;-84
2023/05/13 03:50:53;;;;;;;16.00;10.70;;;10.60;99.90;;;;;;5092774;28;20040;-84
2023/05/13 03:53:19;;;;;;;14.55;10.82;;;10.70;99.90;;;;;;5092055;28;20488;-85
2023/05/13 03:55:45;;;;;;;16.00;11.32;;;10.70;99.90;;;;;;5077948;28;20039;-85
2023/05/13 03:58:13;;;;;;;13.23;10.93;;;10.70;99.90;;;;;;5095941;28;20044;-85
2023/05/13 04:00:39;;;;;;;16.30;11.38;;;10.80;99.90;;;;;;5086815;28;20044;-85
2023/05/13 04:03:04;;;;;;;13.02;9.85;;;10.80;99.90;;;;;;5092344;28;20039;-85
2023/05/13 04:05:30;;;;;;;16.27;11.20;;;10.90;99.90;;;;;;5092090;28;20043;-85
2023/05/13 04:07:56;;;;;;;16.58;11.57;;;10.90;99.90;;;;;;5107047;28;20028;-85
2023/05/13 04:10:22;;;;;;;15.32;11.95;;;10.90;99.90;;;;;;5103190;28;20483;-85
2023/05/13 04:12:47;;;;;;;14.73;11.20;;;10.90;99.90;;;;;;5095374;28;20131;-85
2023/05/13 04:15:13;;;;;;;15.25;11.77;;;11.00;99.90;;;;;;5092330;28;20044;-85
2023/05/13 04:17:38;;;;;;;15.88;11.05;;;11.00;99.90;;;;;;5092107;28;20047;-84
2023/05/13 04:20:04;;;;;;;15.80;11.20;;;11.10;99.90;;;;;;5074856;28;20542;-85
2023/05/13 04:22:30;;;;;;;13.02;11.05;;;11.10;99.90;;;;;;5091757;28;20066;-84
2023/05/13 04:24:56;;;;;;;13.45;9.75;;;11.20;99.90;;;;;;5091627;28;20036;-85
2023/05/13 04:27:24;;;;;;;11.63;10.38;;;11.20;99.90;;;;;;5091893;28;20044;-85
2023/05/13 04:29:50;;;;;;;13.32;10.15;;;11.30;99.90;;;;;;5091641;28;20454;-84
2023/05/13 04:32:20;;;;;;;16.30;10.38;;;11.30;99.90;;;;;;5065748;28;20115;-84
2023/05/13 04:34:47;;;;;;;15.63;10.55;;;11.40;99.90;;;;;;5086959;28;20115;-85
2023/05/13 04:37:12;;;;;;;16.08;10.07;;;11.50;99.90;;;;;;5074767;28;20035;-85
2023/05/13 04:39:38;;;;;;;13.30;9.95;;;11.50;99.90;;;;;;5075061;28;20040;-85
2023/05/13 04:42:03;;;;;;;12.20;9.38;;;11.60;99.90;;;;;;5091491;28;20526;-85
2023/05/13 04:44:29;;;;;;;13.93;9.60;;;11.60;99.90;;;;;;5091501;28;20082;-85
2023/05/13 04:46:54;;;;;;;12.90;9.50;;;11.70;99.90;;;;;;5091266;28;20102;-84
2023/05/13 04:49:20;;;;;;;16.88;10.20;;;11.80;99.90;;;;;;5091123;28;20115;-85
2023/05/13 04:51:45;;;;;;;13.23;9.52;;;11.90;99.90;;;;;;5091049;28;20119;-84
2023/05/13 04:54:11;;;;;;;12.32;9.38;;;11.90;99.90;;;;;;5091172;28;20043;-84
2023/05/13 04:56:36;;;;;;;13.38;9.50;;;12.00;99.90;;;;;;5085327;28;20039;-85
2023/05/13 04:59:02;;;;;;;16.02;9.57;;;12.10;99.90;;;;;;5074293;28;20048;-84
2023/05/13 05:01:27;;;;;;;11.45;9.18;;;12.10;99.90;;;;;;5091145;28;20095;-85
2023/05/13 05:03:53;;;;;;;12.10;8.85;;;12.20;99.90;;;;;;5091068;28;20136;-85
2023/05/13 05:06:20;;;;;;;13.27;8.52;;;12.30;99.90;;;;;;5074912;28;20125;-85
2023/05/13 05:08:46;;;;;;;12.05;8.05;;;12.40;99.90;;;;;;5090860;28;20043;-86
2023/05/13 05:11:11;;;;;;;16.92;9.00;;;12.80;99.90;;;;;;5088656;28;20407;-84
2023/05/13 05:13:37;;;;;;;12.48;8.50;;;12.50;99.90;;;;;;5091106;28;20043;-85
2023/05/13 05:16:03;;;;;;;12.55;8.65;;;12.60;99.90;;;;;;5090988;28;20776;-85
2023/05/13 05:18:28;;;;;;;14.57;9.15;;;12.70;99.90;;;;;;5090781;28;20414;-84
2023/05/13 05:20:54;;;;;;;11.57;8.85;;;12.70;99.90;;;;;;5090339;28;20119;-85
2023/05/13 05:23:19;;;;;;;10.35;8.30;;;12.80;99.90;;;;;;5091037;28;20158;-86
2023/05/13 05:25:45;;;;;;;13.80;8.70;;;12.90;99.90;;;;;;5090978;28;20415;-86
2023/05/13 05:28:11;;;;;;;10.98;8.25;;;12.90;99.90;;;;;;5090601;28;20036;-84
2023/05/13 05:30:39;;;;;;;9.07;7.70;;;13.00;99.90;;;;;;5090617;28;20384;-85
2023/05/13 05:33:05;;;;;;;10.57;7.88;;;13.10;99.90;;;;;;5090400;28;20122;-85
2023/05/13 05:35:32;;;;;;;11.48;8.23;;;13.20;99.90;;;;;;5090540;28;20035;-85
2023/05/13 05:37:58;;;;;;;10.77;8.02;;;13.30;99.90;;;;;;5091899;28;20039;-84
2023/05/13 05:40:23;;;;;;;12.43;8.02;;;13.40;99.90;;;;;;5091953;28;20536;-84
2023/05/13 05:42:49;;;;;;;9.75;7.43;;;13.40;99.90;;;;;;5091854;28;20479;-84
2023/05/13 05:45:14;;;;;;;11.85;7.22;;;13.50;99.90;;;;;;5090471;28;20035;-84
2023/05/13 05:47:40;;;;;;;10.40;8.50;;;13.60;99.90;;;;;;5080490;28;20082;-84
2023/05/13 05:50:06;;;;;;;11.68;7.45;;;13.70;99.90;;;;;;5100455;28;20035;-85
2023/05/13 05:52:31;;;;;;;9.63;7.50;;;13.80;99.90;;;;;;5090308;28;20495;-84
2023/05/13 05:54:57;;;;;;;10.95;8.32;;;13.80;99.90;;;;;;5090116;28;20059;-84
2023/05/13 05:57:23;;;;;;;9.45;7.47;;;13.90;99.90;;;;;;5104236;28;20036;-84
2023/05/13 05:59:49;;;;;;;11.07;7.75;;;14.00;99.90;;;;;;5065521;28;20416;-84
2023/05/13 06:02:15;;;;;;;9.50;7.47;;;14.10;99.90;;;;;;5067407;28;20065;-82
2023/05/13 06:04:40;;;;;;;11.55;7.65;;;14.20;99.90;;;;;;5090021;28;20574;-84
2023/05/13 06:07:07;;;;;;;9.30;8.05;;;14.30;99.90;;;;;;5089989;28;20415;-85
2023/05/13 06:09:32;;;;;;;11.60;7.82;;;14.40;99.90;;;;;;5090005;28;20071;-83
2023/05/13 06:11:58;;;;;;;10.30;7.32;;;14.50;99.90;;;;;;5090020;28;20060;-84
2023/05/13 06:14:23;;;;;;;10.40;7.80;;;14.50;99.90;;;;;;5089890;28;20036;-84
2023/05/13 06:16:49;;;;;;;11.18;7.22;;;14.60;99.90;;;;;;5065528;28;20032;-85
2023/05/13 06:19:14;;;;;;;10.32;7.88;;;14.70;99.90;;;;;;5069787;28;20040;-83
2023/05/13 06:21:41;;;;;;;11.18;7.68;;;14.80;99.90;;;;;;5053167;28;20123;-83
2023/05/13 06:24:08;;;;;;;11.10;8.07;;;14.90;99.90;;;;;;5077966;28;20043;-85
2023/05/13 06:26:33;;;;;;;11.20;8.07;;;14.90;99.90;;;;;;5075825;28;20040;-84
2023/05/13 06:28:59;;;;;;;9.82;7.75;;;15.00;99.90;;;;;;5089859;28;20040;-84
2023/05/13 06:31:25;;;;;;;11.88;7.38;;;15.10;99.90;;;;;;5092519;28;20048;-82
2023/05/13 06:33:51;;;;;;;11.98;7.72;;;15.20;99.90;;;;;;5094140;28;20043;-83
2023/05/13 06:36:16;;;;;;;12.90;8.38;;;15.20;99.90;;;;;;5092078;28;20410;-83
2023/05/13 06:38:42;;;;;;;12.65;6.97;;;15.30;99.90;;;;;;5096461;28;20078;-84
2023/05/13 06:41:07;;;;;;;11.32;7.25;;;15.40;99.90;;;;;;5093775;28;20153;-84
2023/05/13 06:43:33;;;;;;;9.63;7.85;;;15.50;99.90;;;;;;5097620;28;20039;-85
2023/05/13 06:45:58;;;;;;;9.50;7.80;;;15.60;99.90;;;;;;5104180;28;20051;-84
2023/05/13 06:48:24;;;;;;;9.07;7.13;;;15.70;99.90;;;;;;5076532;28;20040;-84
2023/05/13 06:50:50;;;;;;;9.13;7.65;;;15.80;99.90;;;;;;5093660;28;20067;-84
2023/05/13 06:53:15;;;;;;;9.85;7.43;;;15.90;99.90;;;;;;5093573;28;20434;-84
2023/05/13 06:55:41;;;;;;;10.15;7.10;;;16.00;99.90;;;;;;5078626;28;20134;-84
2023/05/13 06:58:07;;;;;;;8.45;7.15;;;16.10;99.90;;;;;;5106359;28;20615;-83
2023/05/13 07:00:37;;;;;;;9.27;6.93;;;16.20;99.90;;;;;;5063340;28;20044;-83
2023/05/13 07:03:07;;;;;;;12.18;7.50;;;16.30;99.90;;;;;;5080286;28;20036;-84
2023/05/13 07:05:33;;;;;;;10.65;7.32;;;16.30;99.90;;;;;;5094962;28;20372;-83
2023/05/13 07:07:59;;;;;;;8.27;6.75;;;16.40;99.90;;;;;;5093366;28;20060;-84
2023/05/13 07:10:25;;;;;;;8.05;6.25;;;16.50;99.90;;;;;;5076239;28;20036;-84
2023/05/13 07:12:51;;;;;;;9.95;7.00;;;16.60;99.90;;;;;;5093173;28;20031;-83
2023/05/13 07:15:16;;;;;;;10.52;6.72;;;16.80;99.90;;;;;;5093173;28;20176;-84
2023/05/13 07:17:42;;;;;;;10.43;7.15;;;16.90;99.90;;;;;;5093493;28;20119;-83
2023/05/13 07:20:08;;;;;;;8.52;6.47;;;17.00;99.90;;;;;;5093309;28;20036;-83
2023/05/13 07:22:34;;;;;;;9.50;6.20;;;17.10;99.90;;;;;;5093825;28;20038;-82
2023/05/13 07:25:00;;;;;;;8.52;6.20;;;17.10;99.90;;;;;;5093449;28;20035;-84
2023/05/13 07:27:26;;;;;;;9.15;6.10;;;17.20;99.90;;;;;;5093220;28;20122;-83
2023/05/13 07:29:51;;;;;;;8.95;6.07;;;17.40;99.90;;;;;;5093686;28;20035;-83
2023/05/13 07:32:17;;;;;;;7.75;6.25;;;17.40;99.90;;;;;;5067333;28;20123;-83
2023/05/13 07:34:43;;;;;;;8.15;6.35;;;17.50;99.90;;;;;;5071076;28;20048;-84
2023/05/13 07:37:08;;;;;;;7.47;5.78;;;17.60;99.90;;;;;;5075737;28;20036;-83
2023/05/13 07:39:34;;;;;;;7.63;5.90;;;17.70;99.90;;;;;;5093180;28;20457;-83
2023/05/13 07:41:59;;;;;;;9.85;5.82;;;17.80;99.90;;;;;;5092094;28;20093;-82
2023/05/13 07:44:25;;;;;;;8.93;6.15;;;18.00;99.90;;;;;;5093211;28;20032;-84
2023/05/13 07:46:52;;;;;;;7.65;5.57;;;18.00;99.90;;;;;;5092697;28;20040;-83
2023/05/13 07:49:18;;;;;;;8.75;5.63;;;18.10;99.90;;;;;;5092564;28;20028;-83
2023/05/13 07:51:44;;;;;;;8.60;5.55;;;18.20;99.90;;;;;;5093127;28;20040;-83
2023/05/13 07:54:10;;;;;;;9.55;5.60;;;18.30;99.90;;;;;;5092819;28;20032;-83
2023/05/13 07:56:36;;;;;;;9.05;5.40;;;18.40;99.90;;;;;;5103244;28;20051;-83
2023/05/13 07:59:02;;;;;;;6.28;5.22;;;18.50;99.90;;;;;;5080277;28;20040;-83
2023/05/13 08:01:28;;;;;;;6.72;4.82;;;18.60;99.90;;;;;;5093536;28;20092;-82
2023/05/13 08:03:53;;;;;;;9.25;5.30;;;18.70;99.90;;;;;;5093576;28;20127;-82
2023/05/13 08:06:19;;;;;;;10.75;5.50;;;18.80;99.90;;;;;;5092497;28;20065;-83
2023/05/13 08:08:45;;;;;;;8.18;5.10;;;18.90;99.90;;;;;;5093686;28;20503;-82
2023/05/13 08:11:11;;;;;;;8.75;5.75;;;19.00;99.90;;;;;;5094731;28;20028;-83
2023/05/13 08:13:37;;;;;;;7.15;4.97;;;19.10;99.90;;;;;;5093245;28;20051;-82
2023/05/13 08:16:03;;;;;;;7.38;4.80;;;19.20;99.90;;;;;;5093606;28;20040;-82
2023/05/13 08:18:29;;;;;;;9.40;4.93;;;19.20;99.90;;;;;;5093499;28;20097;-82
2023/05/13 08:20:54;;;;;;;7.47;4.80;;;19.30;99.90;;;;;;5093735;28;20039;-82
2023/05/13 08:23:20;;;;;;;6.32;4.80;;;19.30;99.90;;;;;;5077220;28;20130;-81
2023/05/13 08:25:45;;;;;;;8.95;5.00;;;19.40;99.90;;;;;;5094916;28;20067;-81
2023/05/13 08:28:11;;;;;;;8.13;5.05;;;19.50;99.90;;;;;;5094433;28;20024;-80
2023/05/13 08:30:39;;;;;;;8.90;4.78;;;19.60;99.90;;;;;;5094580;28;20427;-81
2023/05/13 08:33:05;;;;;;;7.97;5.22;;;19.60;99.90;;;;;;5094865;28;20043;-82
2023/05/13 08:35:31;;;;;;;7.18;4.75;;;19.70;99.90;;;;;;5094661;28;20044;-83
2023/05/13 08:37:56;;;;;;;5.57;4.60;;;19.80;99.90;;;;;;5063637;28;20040;-81
2023/05/13 08:40:22;;;;;;;7.00;4.50;;;19.80;99.90;;;;;;5093232;28;20148;-83
2023/05/13 08:42:51;;;;;;;6.82;4.28;;;19.90;99.90;;;;;;5093181;28;20044;-81
2023/05/13 08:45:21;;;;;;;8.48;4.53;;;19.80;99.90;;;;;;5058465;28;20045;-80
2023/05/13 08:47:54;;;;;;;6.38;4.60;;;19.90;99.90;;;;;;5085286;28;20044;-81
2023/05/13 08:50:21;;;;;;;8.32;4.90;;;19.90;99.90;;;;;;5093745;28;20118;-82
2023/05/13 08:52:48;;;;;;;7.20;4.88;;;20.00;99.90;;;;;;5094548;28;20035;-82
2023/05/13 08:55:14;;;;;;;5.90;4.60;;;20.00;99.90;;;;;;5094818;28;20079;-82
2023/05/13 08:57:40;;;;;;;6.30;4.53;;;20.10;99.90;;;;;;5108617;28;20348;-83
2023/05/13 09:00:06;;;;;;;7.75;4.50;;;20.10;99.90;;;;;;5093569;28;20036;-81
2023/05/13 09:02:32;;;;;;;10.45;4.82;;;20.20;99.90;;;;;;5093473;28;20040;-81
2023/05/13 09:05:05;;;;;;;6.90;4.50;;;20.20;99.90;;;;;;5101685;28;20035;-83
2023/05/13 09:07:31;;;;;;;7.22;5.20;;;20.30;99.90;;;;;;5097856;28;20103;-83
2023/05/13 09:09:57;;;;;;;6.95;4.63;;;20.30;99.90;;;;;;5092945;28;20113;-82
2023/05/13 09:12:43;;;;;;;6.70;4.53;;;20.40;99.90;;;;;;5091954;28;20047;-81
2023/05/13 09:15:11;;;;;;;6.25;4.20;;;20.40;99.90;;;;;;5091471;28;20039;-83
2023/05/13 09:17:47;;;;;;;5.82;4.53;;;20.40;99.90;;;;;;5076144;28;20044;-82
2023/05/13 09:20:14;;;;;;;6.38;4.30;;;20.40;99.90;;;;;;5091987;28;20051;-85
2023/05/13 09:22:55;;;;;;;5.30;4.38;;;20.50;99.90;;;;;;5074848;28;20099;-83
2023/05/13 09:25:24;;;;;;;8.90;4.30;;;20.50;99.90;;;;;;5090785;28;20031;-84
2023/05/13 09:27:56;;;;;;;5.32;3.90;;;20.50;99.90;;;;;;5090939;28;20063;-84
2023/05/13 09:30:22;;;;;;;5.78;4.32;;;20.60;99.90;;;;;;5090973;28;20043;-84
2023/05/13 09:33:10;;;;;;;6.18;4.28;;;20.70;99.90;;;;;;5090409;28;20040;-84
2023/05/13 09:35:42;;;;;;;5.10;3.80;;;20.80;99.90;;;;;;5090627;28;20422;-83
2023/05/13 09:38:27;;;;;;;7.45;4.43;;;20.80;99.90;;;;;;5090244;28;20036;-85
2023/05/13 09:40:58;;;;;;;5.93;4.15;;;20.80;99.90;;;;;;5063699;28;20040;-85
2023/05/13 09:43:30;;;;;;;4.30;3.58;;;20.90;99.90;;;;;;5072686;28;20102;-84
2023/05/13 09:46:00;;;;;;;5.07;3.60;;;20.90;99.90;;;;;;5090540;28;20051;-84
2023/05/13 09:48:28;;;;;;;8.25;3.60;;;21.00;99.90;;;;;;5090537;28;20036;-84
2023/05/13 09:50:56;;;;;;;6.25;3.83;;;21.00;99.90;;;;;;5073696;28;20376;-84
2023/05/13 09:53:25;;;;;;;6.93;4.07;;;21.10;99.90;;;;;;5090330;28;20531;-84
2023/05/13 09:55:53;;;;;;;8.23;3.33;;;21.20;99.90;;;;;;5076755;28;20505;-85
2023/05/13 09:58:19;;;;;;;9.45;4.00;;;21.20;99.90;;;;;;5101668;28;20054;-85
2023/05/13 10:00:46;;;;;;;8.85;3.85;;;21.30;99.90;;;;;;5073538;28;20473;-84
2023/05/13 10:03:12;;;;;;;5.70;4.22;;;21.30;99.90;;;;;;5090722;28;20032;-84
2023/05/13 10:05:39;;;;;;;5.30;3.80;;;21.40;99.90;;;;;;5090235;28;20040;-85
2023/05/13 10:08:09;;;;;;;6.15;3.78;;;21.40;99.90;;;;;;5089990;28;20066;-85
2023/05/13 10:10:35;;;;;;;5.85;3.08;;;21.40;99.90;;;;;;5090728;28;20381;-85
2023/05/13 10:13:07;;;;;;;4.97;3.60;;;21.40;99.90;;;;;;5090154;28;20115;-84
2023/05/13 10:15:33;;;;;;;7.70;3.88;;;21.50;99.90;;;;;;5090360;28;20075;-85
2023/05/13 10:18:00;;;;;;;7.80;3.92;;;21.60;99.90;;;;;;5090036;28;20549;-84
2023/05/13 10:20:26;;;;;;;8.90;4.25;;;21.70;99.90;;;;;;5089972;28;20072;-84
2023/05/13 10:22:52;;;;;;;5.47;3.95;;;21.70;99.90;;;;;;5073806;28;20036;-84
2023/05/13 10:25:18;;;;;;;10.50;4.60;;;21.80;99.90;;;;;;5073829;28;20035;-85
2023/05/13 10:27:44;;;;;;;6.80;4.32;;;21.90;99.90;;;;;;5059475;28;20037;-83
2023/05/13 10:30:10;;;;;;;6.47;3.88;;;22.00;99.90;;;;;;5089717;28;20043;-84
2023/05/13 10:32:38;;;;;;;5.93;3.92;;;22.00;99.90;;;;;;5091835;28;20040;-83
2023/05/13 10:35:15;;;;;;;6.25;3.80;;;22.10;99.90;;;;;;5090404;28;20032;-83
2023/05/13 10:38:15;;;;;;;5.07;3.80;;;22.20;99.90;;;;;;5073359;28;20043;-85
2023/05/13 10:40:50;;;;;;;5.50;4.00;;;22.20;99.90;;;;;;5069643;28;20090;-84
2023/05/13 10:43:20;;;;;;;5.90;4.10;;;22.40;99.90;;;;;;5085194;28;20032;-82
2023/05/13 10:45:47;;;;;;;6.22;4.10;;;22.40;99.90;;;;;;5089934;28;20097;-83
2023/05/13 10:48:15;;;;;;;7.65;4.35;;;22.40;99.90;;;;;;5090517;28;20064;-83
2023/05/13 10:50:53;;;;;;;7.55;4.20;;;22.40;99.90;;;;;;5096468;28;20476;-85
2023/05/13 10:53:27;;;;;;;5.05;4.15;;;22.50;99.90;;;;;;5095710;28;20036;-84
2023/05/13 10:55:58;;;;;;;7.43;3.80;;;22.60;99.90;;;;;;5086285;28;20132;-83
2023/05/13 10:58:36;;;;;;;6.43;4.03;;;22.70;99.90;;;;;;5089739;28;20043;-83
2023/05/13 11:01:42;;;;;;;5.80;3.63;;;22.70;99.90;;;;;;5090790;28;20482;-84
2023/05/13 11:04:13;;;;;;;5.68;4.30;;;22.80;99.90;;;;;;5050394;28;20478;-84
2023/05/13 11:06:40;;;;;;;8.25;4.53;;;22.90;99.90;;;;;;5073524;28;20036;-84
2023/05/13 11:09:07;;;;;;;6.53;3.72;;;23.10;99.90;;;;;;5090431;28;20037;-85
2023/05/13 11:11:34;;;;;;;6.63;4.30;;;23.10;99.90;;;;;;5090190;28;20040;-83
2023/05/13 11:14:22;;;;;;;6.80;4.47;;;23.30;99.90;;;;;;5090076;28;20040;-84
2023/05/13 11:17:00;;;;;;;5.07;3.80;;;23.30;99.90;;;;;;5065007;28;20040;-84
2023/05/13 11:19:46;;;;;;;10.15;4.50;;;23.50;99.90;;;;;;5056994;28;20041;-84
2023/05/13 11:22:12;;;;;;;4.53;3.55;;;23.60;99.90;;;;;;5093973;28;20415;-83
2023/05/13 11:24:38;;;;;;;8.02;4.38;;;23.60;99.90;;;;;;5079366;28;20044;-82
2023/05/13 11:27:12;;;;;;;6.10;4.35;;;23.70;99.90;;;;;;5077304;28;20407;-84
2023/05/13 11:29:46;;;;;;;4.85;3.78;;;23.80;99.90;;;;;;5093071;28;20039;-85
2023/05/13 11:32:11;;;;;;;6.95;3.65;;;23.90;99.90;;;;;;5076524;28;20032;-84
2023/05/13 11:34:38;;;;;;;5.03;3.30;;;24.00;99.90;;;;;;5093258;28;20032;-84
2023/05/13 11:37:03;;;;;;;8.95;3.88;;;24.10;99.90;;;;;;5093036;28;20078;-85
2023/05/13 11:39:30;;;;;;;5.88;3.63;;;24.30;99.90;;;;;;5093534;28;20071;-84
2023/05/13 11:41:56;;;;;;;7.03;3.78;;;24.40;99.90;;;;;;5079412;28;20099;-83
2023/05/13 11:44:24;;;;;;;6.22;3.95;;;24.50;99.90;;;;;;5093287;28;20122;-84
2023/05/13 11:46:51;;;;;;;5.43;3.85;;;24.60;99.90;;;;;;5075777;28;20092;-85
2023/05/13 11:49:37;;;;;;;4.57;3.60;;;24.70;99.90;;;;;;5092685;28;20051;-84
2023/05/13 11:52:04;;;;;;;6.00;4.05;;;24.90;99.90;;;;;;5096452;28;20046;-84
2023/05/13 11:54:30;;;;;;;6.18;4.03;;;25.00;99.90;;;;;;5102374;28;20036;-85
2023/05/13 11:56:55;;;;;;;9.15;4.35;;;25.20;99.90;;;;;;5105429;28;20036;-82
2023/05/13 11:59:21;;;;;;;6.68;3.97;;;24.70;99.90;;;;;;5091218;28;20139;-82
2023/05/13 12:02:00;;;;;;;6.07;3.75;;;24.40;99.90;;;;;;5082951;28;20486;-84
2023/05/13 12:04:29;;;;;;;7.68;3.72;;;24.50;99.90;;;;;;5092563;28;20044;-82
2023/05/13 12:06:55;;;;;;;4.35;3.55;;;24.70;99.90;;;;;;5075591;28;20042;-84
2023/05/13 12:09:22;;;;;;;5.53;3.63;;;25.00;99.90;;;;;;5092499;28;20040;-84
2023/05/13 12:11:52;;;;;;;6.70;3.80;;;24.90;99.90;;;;;;5075518;28;20411;-84
2023/05/13 12:14:19;;;;;;;8.32;3.67;;;25.20;99.90;;;;;;5092098;28;20042;-84
2023/05/13 12:16:45;;;;;;;8.55;3.42;;;25.30;99.90;;;;;;5092356;28;20036;-84
2023/05/13 12:19:10;;;;;;;7.57;3.53;;;25.40;99.90;;;;;;5092125;28;20039;-83
2023/05/13 12:21:37;;;;;;;7.32;4.75;;;25.50;99.90;;;;;;5092467;28;20039;-83
2023/05/13 12:24:17;;;;;;;8.20;4.47;;;25.20;99.90;;;;;;5092680;28;20101;-83
2023/05/13 12:26:42;;;;;;;6.93;3.70;;;25.30;99.90;;;;;;5092712;28;20040;-83
2023/05/13 12:29:08;;;;;;;6.60;3.10;;;25.50;99.90;;;;;;5092119;28;20458;-84
2023/05/13 12:31:33;;;;;;;6.05;3.85;;;25.60;99.90;;;;;;5060868;28;20040;-83
2023/05/13 12:33:59;;;;;;;9.68;4.90;;;25.80;99.90;;;;;;5092477;28;20461;-82
2023/05/13 12:36:32;;;;;;;9.48;5.35;;;25.80;99.90;;;;;;5078471;28;20079;-82
2023/05/13 12:39:03;;;;;;;7.32;4.70;;;25.50;99.90;;;;;;5093163;28;20048;-83
2023/05/13 12:41:31;;;;;;;8.63;4.63;;;25.60;99.90;;;;;;5092592;28;20067;-82